Time;durP1;ratioP1;P1;durP2;ratioP2;P2;SDS_P1;SDS_P2;PMS_P1;PMS_P2;Temp;Humidity;BMP_temperature;BMP_pressure;BME280_temperature;BME280_humidity;BME280_pressure;Samples;Min_cycle;Max_cycle;Signal;HPM_P1;HPM_P2
2023/03/10 00:01:12;;;;;;;0.70;0.70;;;;;;;11.67;90.89;98688.38;5037755;28;20208;-65
2023/03/10 00:03:39;;;;;;;0.50;0.50;;;;;;;11.69;91.84;98678.03;5035491;28;20198;-65
2023/03/10 00:06:07;;;;;;;0.50;0.50;;;;;;;11.74;92.19;98681.25;5036462;28;20244;-65
2023/03/10 00:08:35;;;;;;;0.60;0.60;;;;;;;11.79;91.87;98680.16;5050144;28;20596;-65
2023/03/10 00:11:02;;;;;;;0.60;0.60;;;;;;;11.87;91.00;98688.31;5048999;28;20716;-65
2023/03/10 00:13:29;;;;;;;0.40;0.40;;;;;;;11.82;91.26;98674.03;5042506;28;20196;-65
2023/03/10 00:15:56;;;;;;;0.50;0.50;;;;;;;11.96;90.89;98681.91;5048969;28;20204;-65
2023/03/10 00:18:23;;;;;;;0.50;0.50;;;;;;;12.01;90.61;98672.28;5047367;28;20212;-66
2023/03/10 00:20:51;;;;;;;0.53;0.53;;;;;;;12.03;90.89;98667.88;5048624;28;20199;-65
2023/03/10 00:23:18;;;;;;;0.43;0.43;;;;;;;11.99;91.36;98667.19;5046164;28;20743;-65
2023/03/10 00:25:53;;;;;;;0.40;0.40;;;;;;;11.89;91.55;98649.75;5045414;28;20208;-65
2023/03/10 00:28:20;;;;;;;0.60;0.60;;;;;;;11.98;91.42;98659.56;5046812;28;20200;-65
2023/03/10 00:30:57;;;;;;;0.70;0.70;;;;;;;11.99;91.34;98656.91;5049240;28;20200;-65
2023/03/10 00:33:24;;;;;;;0.50;0.50;;;;;;;11.92;90.99;98641.91;5047795;28;20201;-65
2023/03/10 00:35:59;;;;;;;0.60;0.60;;;;;;;11.89;92.15;98655.69;5048448;28;20685;-65
2023/03/10 00:38:27;;;;;;;0.50;0.50;;;;;;;11.83;92.33;98650.84;5047851;28;20240;-65
2023/03/10 00:40:59;;;;;;;0.60;0.60;;;;;;;11.82;92.34;98656.06;5048102;28;20210;-58
2023/03/10 00:43:26;;;;;;;0.40;0.40;;;;;;;11.67;92.40;98629.31;5046088;28;20669;-58
2023/03/10 00:45:53;;;;;;;0.50;0.50;;;;;;;11.87;91.87;98662.66;5047845;28;20266;-57
2023/03/10 00:48:20;;;;;;;0.40;0.40;;;;;;;11.82;92.23;98656.06;5045144;28;20537;-58
2023/03/10 00:50:46;;;;;;;0.63;0.63;;;;;;;11.84;92.37;98665.34;5046135;28;20193;-58
2023/03/10 00:53:14;;;;;;;0.50;0.50;;;;;;;11.83;92.80;98663.69;5045499;28;20687;-58
2023/03/10 00:55:41;;;;;;;0.73;0.73;;;;;;;11.71;93.42;98671.13;5044423;28;20197;-57
2023/03/10 00:58:09;;;;;;;0.70;0.70;;;;;;;11.68;93.36;98674.63;5046426;28;20193;-57
2023/03/10 01:00:36;;;;;;;0.50;0.50;;;;;;;11.69;93.45;98678.88;5047416;28;20208;-58
2023/03/10 01:03:03;;;;;;;0.50;0.50;;;;;;;11.37;92.92;98615.38;5047973;28;20197;-58
2023/03/10 01:05:29;;;;;;;0.50;0.50;;;;;;;11.73;92.63;98669.34;5048396;28;20220;-57
2023/03/10 01:07:56;;;;;;;0.50;0.50;;;;;;;11.75;92.20;98660.66;5048286;28;20196;-58
2023/03/10 01:10:23;;;;;;;0.70;0.70;;;;;;;11.75;92.00;98667.53;5052552;28;20219;-57
2023/03/10 01:12:50;;;;;;;0.60;0.60;;;;;;;11.76;92.15;98664.06;5052829;28;20746;-57
2023/03/10 01:15:18;;;;;;;0.50;0.50;;;;;;;11.79;92.04;98669.06;5051478;28;20583;-58
2023/03/10 01:17:45;;;;;;;0.57;0.57;;;;;;;11.79;92.17;98669.88;5052035;28;20220;-58
2023/03/10 01:20:15;;;;;;;0.43;0.43;;;;;;;11.75;91.83;98667.53;5050658;28;20220;-58
2023/03/10 01:22:42;;;;;;;0.53;0.53;;;;;;;11.72;91.83;98662.53;5048282;28;20669;-57
2023/03/10 01:25:13;;;;;;;0.60;0.60;;;;;;;11.72;91.90;98668.50;5047430;28;20685;-58
2023/03/10 01:27:40;;;;;;;0.40;0.40;;;;;;;11.68;91.99;98660.97;5049023;28;20740;-57
2023/03/10 01:30:08;;;;;;;0.70;0.70;;;;;;;11.65;92.19;98661.13;5046421;28;20193;-58
2023/03/10 01:32:37;;;;;;;0.70;0.70;;;;;;;11.62;92.08;98656.13;5047730;28;20196;-58
2023/03/10 01:35:04;;;;;;;0.40;0.40;;;;;;;11.62;92.03;98656.13;5043018;28;20200;-58
2023/03/10 01:37:32;;;;;;;0.60;0.60;;;;;;;11.48;92.18;98638.78;5046628;28;20669;-57
2023/03/10 01:39:58;;;;;;;0.50;0.50;;;;;;;11.60;91.87;98658.75;5046691;28;20282;-58
2023/03/10 01:42:25;;;;;;;0.50;0.50;;;;;;;11.56;91.79;98650.38;5043768;28;20680;-57
2023/03/10 01:45:07;;;;;;;0.43;0.43;;;;;;;11.45;91.64;98634.63;5041911;28;20288;-58
2023/03/10 01:47:35;;;;;;;0.50;0.50;;;;;;;11.51;91.78;98651.47;5042884;28;20220;-57
2023/03/10 01:50:05;;;;;;;0.43;0.43;;;;;;;11.48;91.74;98644.75;5049074;28;20208;-58
2023/03/10 01:52:34;;;;;;;0.60;0.60;;;;;;;11.44;91.97;98645.78;5046973;28;20208;-57
2023/03/10 01:55:10;;;;;;;0.50;0.50;;;;;;;11.40;92.18;98641.72;5050674;28;20558;-57
2023/03/10 01:57:40;;;;;;;0.90;0.90;;;;;;;11.32;91.82;98633.53;5050788;28;20208;-58
2023/03/10 02:00:11;;;;;;;0.50;0.50;;;;;;;11.38;91.69;98651.19;5050785;28;20220;-58
2023/03/10 02:02:43;;;;;;;0.70;0.70;;;;;;;11.38;91.95;98653.75;5045868;28;20284;-58
2023/03/10 02:05:12;;;;;;;0.40;0.40;;;;;;;11.21;92.74;98655.44;5049787;28;20196;-58
2023/03/10 02:07:40;;;;;;;0.40;0.40;;;;;;;11.11;92.96;98659.31;5044184;28;20209;-57
2023/03/10 02:10:09;;;;;;;0.53;0.53;;;;;;;10.92;94.06;98649.03;5050977;28;20201;-58
2023/03/10 02:12:36;;;;;;;0.60;0.60;;;;;;;10.82;94.05;98650.31;5050165;28;20201;-58
2023/03/10 02:15:03;;;;;;;0.50;0.50;;;;;;;10.80;94.28;98657.22;5049934;28;20204;-58
2023/03/10 02:17:30;;;;;;;0.50;0.50;;;;;;;10.79;94.63;98651.25;5049864;28;20204;-57
2023/03/10 02:20:22;;;;;;;0.60;0.60;;;;;;;10.71;94.36;98655.06;5050098;28;20209;-57
2023/03/10 02:22:49;;;;;;;0.40;0.40;;;;;;;10.72;94.49;98656.72;5047512;28;20201;-57
2023/03/10 02:25:33;;;;;;;0.77;0.77;;;;;;;10.72;94.67;98661.88;5047431;28;20262;-57
2023/03/10 02:28:02;;;;;;;0.50;0.50;;;;;;;10.64;94.97;98656.22;5049911;28;20193;-58
2023/03/10 02:30:32;;;;;;;0.40;0.40;;;;;;;10.68;95.15;98666.28;5050226;28;20227;-57
2023/03/10 02:33:04;;;;;;;0.73;0.73;;;;;;;10.67;95.29;98663.78;5050983;28;20668;-57
2023/03/10 02:35:30;;;;;;;0.50;0.50;;;;;;;10.70;95.12;98668.75;5049115;28;20673;-57
2023/03/10 02:37:58;;;;;;;0.57;0.57;;;;;;;10.70;95.33;98668.75;5049993;28;20193;-58
2023/03/10 02:40:36;;;;;;;0.50;0.50;;;;;;;10.68;94.88;98670.56;5047961;28;20224;-58
2023/03/10 02:43:11;;;;;;;0.40;0.40;;;;;;;10.66;95.30;98670.66;5048942;28;20687;-58
2023/03/10 02:45:41;;;;;;;0.50;0.50;;;;;;;10.65;95.54;98684.34;5044821;28;20224;-58
2023/03/10 02:48:08;;;;;;;0.50;0.50;;;;;;;10.25;96.99;98690.28;5048970;28;20600;-57
2023/03/10 02:50:39;;;;;;;0.50;0.50;;;;;;;10.09;97.83;98678.94;5050015;28;20197;-58
2023/03/10 02:53:11;;;;;;;0.73;0.73;;;;;;;10.14;97.87;98689.88;5050489;28;20204;-57
2023/03/10 02:55:39;;;;;;;0.50;0.50;;;;;;;10.13;98.04;98700.97;5050007;28;20228;-57
2023/03/10 02:58:07;;;;;;;0.60;0.60;;;;;;;10.11;98.85;98709.63;5047091;28;20247;-57
2023/03/10 03:00:37;;;;;;;0.50;0.50;;;;;;;10.11;99.11;98705.34;5046126;28;20220;-57
2023/03/10 03:03:04;;;;;;;0.40;0.40;;;;;;;9.95;99.79;98683.78;5045167;28;20208;-57
2023/03/10 03:05:31;;;;;;;0.70;0.70;;;;;;;10.06;100.00;98707.22;5045866;28;20622;-57
2023/03/10 03:07:57;;;;;;;0.40;0.40;;;;;;;9.88;100.00;98702.81;5045178;28;20562;-58
2023/03/10 03:10:24;;;;;;;0.70;0.70;;;;;;;9.79;100.00;98692.94;5045461;28;20190;-58
2023/03/10 03:12:51;;;;;;;0.80;0.80;;;;;;;9.83;100.00;98694.47;5044298;28;20827;-58
2023/03/10 03:15:19;;;;;;;0.50;0.50;;;;;;;9.77;100.00;98692.16;5049666;28;20201;-57
2023/03/10 03:17:46;;;;;;;0.70;0.70;;;;;;;9.69;100.00;98695.03;5043124;28;20201;-57
2023/03/10 03:20:13;;;;;;;0.50;0.50;;;;;;;9.68;100.00;98683.09;5039902;28;20247;-57
2023/03/10 03:22:41;;;;;;;0.60;0.60;;;;;;;9.73;100.00;98677.78;5041076;28;20217;-58
2023/03/10 03:25:09;;;;;;;0.50;0.50;;;;;;;9.69;100.00;98666.03;5042906;28;20664;-57
2023/03/10 03:27:37;;;;;;;0.50;0.50;;;;;;;9.67;100.00;98688.28;5046833;28;20284;-57
2023/03/10 03:30:05;;;;;;;0.60;0.60;;;;;;;9.64;100.00;98684.09;5050506;28;20201;-57
2023/03/10 03:32:35;;;;;;;0.70;0.70;;;;;;;9.64;100.00;98680.72;5040762;28;20784;-58
2023/03/10 03:35:02;;;;;;;0.40;0.40;;;;;;;9.69;100.00;98691.63;5044598;28;20595;-57
2023/03/10 03:37:29;;;;;;;0.97;0.97;;;;;;;9.77;100.00;98685.31;5038822;28;20197;-57
2023/03/10 03:39:56;;;;;;;0.47;0.47;;;;;;;9.81;100.00;98670.69;5042476;28;20224;-58
2023/03/10 03:42:23;;;;;;;0.50;0.50;;;;;;;9.82;100.00;98657.00;5038454;28;20579;-58
2023/03/10 03:44:49;;;;;;;0.57;0.57;;;;;;;9.91;100.00;98667.72;5045915;28;20282;-58
2023/03/10 03:47:16;;;;;;;0.50;0.50;;;;;;;9.96;100.00;98658.09;5042451;28;20259;-57
2023/03/10 03:49:44;;;;;;;0.60;0.60;;;;;;;10.02;100.00;98659.56;5049576;28;20200;-58
2023/03/10 03:52:11;;;;;;;0.50;0.50;;;;;;;10.06;100.00;98658.56;5047219;28;20197;-58
2023/03/10 03:54:38;;;;;;;0.40;0.40;;;;;;;10.12;99.56;98663.44;5049059;28;20200;-58
2023/03/10 03:57:04;;;;;;;0.60;0.60;;;;;;;10.15;99.36;98671.03;5047925;28;20679;-56
2023/03/10 03:59:31;;;;;;;0.50;0.50;;;;;;;10.16;99.17;98677.84;5047422;28;20277;-58
2023/03/10 04:01:58;;;;;;;0.50;0.50;;;;;;;10.16;99.14;98670.16;5047838;28;20207;-58
2023/03/10 04:04:25;;;;;;;0.50;0.50;;;;;;;10.19;99.13;98676.88;5047822;28;20201;-57
2023/03/10 04:06:53;;;;;;;0.47;0.47;;;;;;;10.12;98.87;98668.56;5049937;28;20707;-57
2023/03/10 04:09:20;;;;;;;0.60;0.60;;;;;;;10.21;98.57;98680.22;5047293;28;20649;-59
2023/03/10 04:11:47;;;;;;;0.40;0.40;;;;;;;10.20;98.95;98681.94;5047885;28;20714;-58
2023/03/10 04:14:13;;;;;;;0.50;0.50;;;;;;;10.18;98.70;98676.03;5048636;28;20193;-57
2023/03/10 04:16:41;;;;;;;0.50;0.50;;;;;;;10.20;98.19;98679.38;5048520;28;20200;-57
2023/03/10 04:19:26;;;;;;;0.60;0.60;;;;;;;10.17;98.08;98668.44;5046791;28;20196;-57
2023/03/10 04:21:55;;;;;;;0.83;0.83;;;;;;;10.13;98.39;98666.84;5048515;28;20200;-57
2023/03/10 04:24:21;;;;;;;0.57;0.57;;;;;;;10.14;98.90;98669.38;5044006;28;20201;-57
2023/03/10 04:26:48;;;;;;;0.40;0.40;;;;;;;10.16;98.75;98672.72;5049280;28;20212;-57
2023/03/10 04:29:15;;;;;;;0.60;0.60;;;;;;;10.14;98.75;98674.50;5048233;28;20200;-58
2023/03/10 04:31:42;;;;;;;0.60;0.60;;;;;;;10.12;98.70;98676.25;5049528;28;20262;-58
2023/03/10 04:34:09;;;;;;;0.50;0.50;;;;;;;10.15;98.31;98671.03;5047772;28;20208;-58
2023/03/10 04:36:35;;;;;;;0.50;0.50;;;;;;;10.12;98.45;98681.38;5047925;28;20209;-58
2023/03/10 04:39:04;;;;;;;0.60;0.60;;;;;;;10.10;99.13;98678.03;5051956;28;20627;-58
2023/03/10 04:41:31;;;;;;;0.60;0.60;;;;;;;10.13;98.94;98683.03;5051279;28;20709;-57
2023/03/10 04:43:58;;;;;;;0.50;0.50;;;;;;;10.13;99.02;98685.59;5050128;28;20278;-57
2023/03/10 04:46:25;;;;;;;0.60;0.60;;;;;;;10.05;98.50;98662.00;5047875;28;20285;-58
2023/03/10 04:48:52;;;;;;;0.60;0.60;;;;;;;10.16;98.81;98679.56;5049454;28;20200;-57
2023/03/10 04:51:18;;;;;;;0.57;0.57;;;;;;;10.16;98.68;98667.59;5047602;28;20212;-58
2023/03/10 04:53:45;;;;;;;0.63;0.63;;;;;;;10.15;98.60;98670.19;5048146;28;20220;-57
2023/03/10 04:56:14;;;;;;;0.50;0.50;;;;;;;10.17;98.82;98671.81;5050455;28;20204;-57
2023/03/10 04:58:40;;;;;;;0.53;0.53;;;;;;;10.19;98.17;98671.75;5050622;28;20730;-58
2023/03/10 05:01:09;;;;;;;0.63;0.63;;;;;;;10.19;98.36;98672.59;5050378;28;20225;-58
2023/03/10 05:03:36;;;;;;;0.50;0.50;;;;;;;10.12;98.71;98665.16;5049792;28;20204;-58
2023/03/10 05:06:02;;;;;;;0.50;0.50;;;;;;;10.06;98.59;98666.25;5050402;28;21749;-57
2023/03/10 05:08:29;;;;;;;0.70;0.70;;;;;;;10.14;98.60;98679.63;5047119;28;20704;-57
2023/03/10 05:10:57;;;;;;;0.67;0.67;;;;;;;10.18;98.77;98685.47;5052527;28;20197;-57
2023/03/10 05:13:26;;;;;;;0.60;0.60;;;;;;;10.18;98.79;98676.03;5051237;28;20202;-58
2023/03/10 05:15:52;;;;;;;0.90;0.90;;;;;;;10.13;98.65;98666.84;5050907;28;20648;-57
2023/03/10 05:18:19;;;;;;;0.60;0.60;;;;;;;10.16;99.06;98667.59;5049480;28;20207;-57
2023/03/10 05:20:53;;;;;;;0.40;0.40;;;;;;;10.15;99.19;98668.47;5048506;28;20221;-58
2023/03/10 05:23:20;;;;;;;0.50;0.50;;;;;;;10.15;99.47;98672.75;5044205;28;20247;-58
2023/03/10 05:25:47;;;;;;;0.47;0.47;;;;;;;10.17;99.48;98674.38;5050199;28;20676;-57
2023/03/10 05:28:14;;;;;;;0.43;0.43;;;;;;;10.20;99.40;98669.13;5050720;28;20201;-57
2023/03/10 05:30:42;;;;;;;0.50;0.50;;;;;;;10.12;99.95;98660.88;5047495;28;20198;-57
2023/03/10 05:33:09;;;;;;;0.60;0.60;;;;;;;10.22;99.71;98672.47;5045988;28;20255;-57
2023/03/10 05:35:37;;;;;;;0.50;0.50;;;;;;;10.21;99.89;98681.03;5046887;28;20211;-57
2023/03/10 05:38:04;;;;;;;0.50;0.50;;;;;;;10.23;99.79;98679.25;5043919;28;20549;-57
2023/03/10 05:40:31;;;;;;;0.40;0.40;;;;;;;10.22;100.00;98671.63;5041639;28;20220;-58
2023/03/10 05:42:58;;;;;;;0.60;0.60;;;;;;;10.24;100.00;98665.53;5045226;28;20209;-57
2023/03/10 05:45:25;;;;;;;0.40;0.40;;;;;;;10.24;100.00;98670.66;5045137;28;20296;-57
2023/03/10 05:47:53;;;;;;;0.50;0.50;;;;;;;10.23;100.00;98674.13;5050533;28;20668;-57
2023/03/10 05:50:20;;;;;;;0.80;0.80;;;;;;;10.24;100.00;98662.97;5040570;28;20205;-58
2023/03/10 05:52:47;;;;;;;0.40;0.40;;;;;;;10.21;100.00;98657.97;5046354;28;20608;-58
2023/03/10 05:55:16;;;;;;;0.70;0.70;;;;;;;10.13;100.00;98652.31;5046985;28;20197;-57
2023/03/10 05:57:43;;;;;;;0.50;0.50;;;;;;;10.18;100.00;98659.84;5045979;28;20259;-57
2023/03/10 06:00:11;;;;;;;0.70;0.70;;;;;;;10.22;100.00;98657.09;5043478;28;20221;-60
2023/03/10 06:02:39;;;;;;;0.40;0.40;;;;;;;10.26;100.00;98652.69;5049355;28;20300;-59
2023/03/10 06:05:09;;;;;;;0.67;0.67;;;;;;;10.36;100.00;98654.81;5048595;28;20193;-59
2023/03/10 06:07:36;;;;;;;0.50;0.50;;;;;;;10.44;100.00;98652.75;5048735;28;20244;-60
2023/03/10 06:10:03;;;;;;;0.50;0.50;;;;;;;10.51;100.00;98654.16;5045772;28;20205;-59
2023/03/10 06:12:32;;;;;;;0.50;0.50;;;;;;;10.59;99.44;98651.31;5046243;28;20730;-59
2023/03/10 06:14:59;;;;;;;0.50;0.50;;;;;;;10.63;100.00;98659.69;5046765;28;20256;-59
2023/03/10 06:17:25;;;;;;;0.50;0.50;;;;;;;10.69;100.00;98646.63;5044078;28;20270;-59
2023/03/10 06:19:52;;;;;;;0.53;0.53;;;;;;;10.76;99.90;98653.97;5046223;28;20205;-66
2023/03/10 06:22:20;;;;;;;0.47;0.47;;;;;;;10.84;100.00;98653.63;5041669;28;20201;-57
2023/03/10 06:24:47;;;;;;;0.50;0.50;;;;;;;10.93;100.00;98655.81;5048303;28;20591;-57
2023/03/10 06:27:14;;;;;;;0.53;0.53;;;;;;;11.04;100.00;98644.19;5100157;22;20654;-56
2023/03/10 06:29:41;;;;;;;0.40;0.40;;;;;;;11.15;99.96;98648.03;5036195;28;20738;-56
2023/03/10 06:32:08;;;;;;;0.80;0.80;;;;;;;11.24;100.00;98648.44;5033540;28;20211;-56
2023/03/10 06:34:35;;;;;;;0.40;0.40;;;;;;;11.24;99.07;98645.88;5051467;28;20655;-56
2023/03/10 06:37:02;;;;;;;0.40;0.40;;;;;;;11.33;99.12;98648.03;5039618;28;20232;-57
2023/03/10 06:39:30;;;;;;;0.50;0.50;;;;;;;11.40;99.14;98649.41;5029646;28;20697;-56
2023/03/10 06:41:57;;;;;;;0.60;0.60;;;;;;;11.43;99.16;98648.44;5028961;28;20213;-56
2023/03/10 06:44:24;;;;;;;0.40;0.40;;;;;;;11.45;99.00;98644.06;5029808;28;20208;-56
2023/03/10 06:46:51;;;;;;;0.50;0.50;;;;;;;11.54;99.17;98646.19;5030237;28;20220;-56
2023/03/10 06:49:17;;;;;;;0.60;0.60;;;;;;;11.57;99.38;98649.47;5040994;28;20211;-56
2023/03/10 06:51:44;;;;;;;0.47;0.47;;;;;;;11.71;99.50;98640.31;5027005;28;20198;-56
2023/03/10 06:54:11;;;;;;;0.50;0.50;;;;;;;11.71;99.89;98641.16;5023588;28;20259;-56
2023/03/10 06:56:39;;;;;;;0.50;0.50;;;;;;;11.84;100.00;98631.13;5032304;28;20212;-57
2023/03/10 06:59:06;;;;;;;0.90;0.90;;;;;;;11.86;100.00;98631.88;5028990;28;20660;-57
2023/03/10 07:01:33;;;;;;;1.27;1.17;;;;;;;11.91;100.00;98627.38;5034702;28;20597;-56
2023/03/10 07:04:01;;;;;;;0.40;0.40;;;;;;;12.01;100.00;98623.47;5030070;28;20197;-56
2023/03/10 07:06:28;;;;;;;0.43;0.43;;;;;;;12.03;100.00;98626.78;5028404;28;20267;-56
2023/03/10 07:08:55;;;;;;;0.60;0.60;;;;;;;12.19;100.00;98627.69;5029173;28;20209;-56
2023/03/10 07:11:23;;;;;;;0.40;0.40;;;;;;;12.25;100.00;98606.84;5039214;28;20197;-56
2023/03/10 07:13:51;;;;;;;1.00;1.00;;;;;;;12.39;100.00;98625.00;5028439;28;20208;-56
2023/03/10 07:16:18;;;;;;;0.50;0.50;;;;;;;12.51;100.00;98624.38;5026861;28;20228;-56
2023/03/10 07:18:45;;;;;;;0.43;0.43;;;;;;;12.66;100.00;98622.78;5032401;28;20189;-56
2023/03/10 07:21:15;;;;;;;0.63;0.63;;;;;;;12.81;100.00;98631.44;5027307;28;20229;-57
2023/03/10 07:23:42;;;;;;;0.77;0.77;;;;;;;13.02;100.00;98635.50;5027081;28;20205;-57
2023/03/10 07:26:09;;;;;;;0.47;0.47;;;;;;;13.21;100.00;98627.66;5024292;28;20267;-56
2023/03/10 07:28:37;;;;;;;0.50;0.50;;;;;;;13.38;99.54;98628.41;5031725;28;20613;-57
2023/03/10 07:31:07;;;;;;;0.87;0.87;;;;;;;13.46;98.78;98625.44;5038709;28;20198;-56
2023/03/10 07:33:34;;;;;;;1.10;1.10;;;;;;;13.60;98.87;98621.19;5035378;28;20213;-56
2023/03/10 07:36:04;;;;;;;1.13;1.13;;;;;;;13.71;97.34;98620.59;5027802;28;20676;-56
2023/03/10 07:38:31;;;;;;;1.13;1.13;;;;;;;13.82;95.47;98627.75;5020275;28;20252;-56
2023/03/10 07:40:58;;;;;;;0.70;0.70;;;;;;;13.97;95.04;98632.03;5024034;28;20219;-56
2023/03/10 07:43:24;;;;;;;0.60;0.60;;;;;;;14.05;95.07;98637.59;5011809;28;20210;-57
2023/03/10 07:45:51;;;;;;;0.50;0.50;;;;;;;14.20;94.58;98644.44;5032038;28;20197;-57
2023/03/10 07:48:19;;;;;;;0.40;0.40;;;;;;;14.24;93.32;98643.38;5035308;28;20210;-56
2023/03/10 07:50:55;;;;;;;0.50;0.50;;;;;;;14.26;93.18;98638.94;5034149;28;20220;-57
2023/03/10 07:53:22;;;;;;;0.60;0.60;;;;;;;14.29;92.54;98643.09;5039527;28;20206;-56
2023/03/10 07:55:48;;;;;;;0.73;0.73;;;;;;;14.34;93.08;98644.53;5028258;28;20605;-57
2023/03/10 07:58:15;;;;;;;1.57;1.57;;;;;;;14.45;93.11;98647.31;5028967;28;20277;-56
2023/03/10 08:00:42;;;;;;;0.63;0.63;;;;;;;14.42;92.35;98639.75;5029512;28;20226;-60
2023/03/10 08:03:09;;;;;;;1.13;1.13;;;;;;;14.45;94.22;98644.72;5031026;28;20259;-56
2023/03/10 08:05:41;;;;;;;0.50;0.50;;;;;;;14.59;93.60;98642.19;5030269;28;20207;-56
2023/03/10 08:08:08;;;;;;;0.50;0.50;;;;;;;14.64;91.71;98635.00;5021223;28;20202;-57
2023/03/10 08:10:34;;;;;;;0.40;0.40;;;;;;;14.63;90.57;98632.53;5034670;28;20286;-56
2023/03/10 08:13:01;;;;;;;0.50;0.50;;;;;;;14.60;92.04;98628.34;5016178;28;20664;-56
2023/03/10 08:15:28;;;;;;;0.60;0.60;;;;;;;14.60;90.02;98638.69;5024911;28;20202;-56
2023/03/10 08:17:55;;;;;;;0.57;0.57;;;;;;;14.61;90.86;98630.03;5030253;28;20207;-59
2023/03/10 08:20:22;;;;;;;0.40;0.40;;;;;;;14.72;91.27;98621.66;5027819;28;20558;-56
2023/03/10 08:22:52;;;;;;;0.60;0.60;;;;;;;14.76;90.11;98618.00;5023842;28;20687;-56
2023/03/10 08:25:19;;;;;;;0.60;0.60;;;;;;;14.81;90.03;98625.44;5027428;28;20204;-57
2023/03/10 08:27:46;;;;;;;0.47;0.47;;;;;;;14.88;89.18;98621.56;5030602;28;20284;-56
2023/03/10 08:30:13;;;;;;;0.50;0.50;;;;;;;14.94;89.15;98610.88;5031980;28;20615;-56
2023/03/10 08:32:40;;;;;;;1.23;1.23;;;;;;;15.03;89.01;98616.31;5045122;28;20253;-57
2023/03/10 08:35:08;;;;;;;1.17;1.17;;;;;;;15.03;87.86;98612.91;5035609;28;20263;-56
2023/03/10 08:37:34;;;;;;;0.50;0.50;;;;;;;15.05;86.87;98608.50;5033252;28;20200;-56
2023/03/10 08:40:06;;;;;;;0.60;0.60;;;;;;;15.04;85.76;98612.00;5039658;28;20209;-56
2023/03/10 08:42:37;;;;;;;0.50;0.50;;;;;;;15.10;87.78;98598.72;5030205;28;20277;-56
2023/03/10 08:45:05;;;;;;;0.50;0.50;;;;;;;15.08;86.34;98592.81;5043866;28;20197;-56
2023/03/10 08:47:31;;;;;;;1.57;1.57;;;;;;;15.16;87.76;98593.16;5031633;28;20214;-56
2023/03/10 08:49:58;;;;;;;0.73;0.73;;;;;;;15.24;87.42;98598.69;5033055;28;20229;-56
2023/03/10 08:52:25;;;;;;;0.50;0.50;;;;;;;15.33;87.27;98598.13;5038380;28;20209;-57
2023/03/10 08:54:52;;;;;;;0.40;0.40;;;;;;;15.36;83.54;98602.25;5038503;28;20248;-56
2023/03/10 08:57:20;;;;;;;0.50;0.50;;;;;;;15.45;84.20;98597.34;5031917;28;20217;-57
2023/03/10 08:59:47;;;;;;;0.50;0.50;;;;;;;15.48;84.62;98592.03;5024978;28;20205;-56
2023/03/10 09:02:14;;;;;;;0.40;0.40;;;;;;;15.50;85.87;98587.63;5026285;28;20663;-57
2023/03/10 09:04:41;;;;;;;0.50;0.50;;;;;;;15.63;86.49;98578.16;5027693;28;20295;-58
2023/03/10 09:07:07;;;;;;;0.60;0.60;;;;;;;15.80;85.56;98586.59;5027930;28;20216;-57
2023/03/10 09:09:34;;;;;;;0.57;0.57;;;;;;;15.79;84.09;98575.41;5030280;28;20210;-57
2023/03/10 09:12:01;;;;;;;0.50;0.50;;;;;;;16.00;81.70;98579.19;5018853;28;20730;-56
2023/03/10 09:14:29;;;;;;;0.40;0.40;;;;;;;16.04;80.90;98569.47;5033225;28;20252;-57
2023/03/10 09:16:56;;;;;;;0.50;0.50;;;;;;;16.10;81.02;98564.72;5029001;28;20565;-57
2023/03/10 09:19:22;;;;;;;0.50;0.50;;;;;;;16.21;79.77;98566.63;5027697;28;20669;-56
2023/03/10 09:21:49;;;;;;;0.40;0.40;;;;;;;16.26;79.17;98564.53;5028274;28;20221;-56
2023/03/10 09:24:16;;;;;;;0.60;0.60;;;;;;;16.39;78.96;98560.22;5029657;28;20691;-57
2023/03/10 09:26:43;;;;;;;1.10;1.10;;;;;;;16.48;76.53;98562.19;5040582;28;20568;-57
2023/03/10 09:29:10;;;;;;;0.77;0.77;;;;;;;16.57;74.46;98556.44;5046238;28;20615;-56
2023/03/10 09:31:39;;;;;;;0.77;0.77;;;;;;;16.72;75.03;98541.59;5039249;28;20200;-57
2023/03/10 09:34:07;;;;;;;1.07;1.07;;;;;;;16.89;74.31;98546.47;5033346;28;20201;-56
2023/03/10 09:36:34;;;;;;;0.40;0.40;;;;;;;16.91;74.11;98546.34;5027357;28;20201;-56
2023/03/10 09:39:01;;;;;;;0.30;0.30;;;;;;;17.11;73.47;98538.03;5030725;28;20210;-57
2023/03/10 09:42:03;;;;;;;0.40;0.40;;;;;;;17.16;73.42;98525.56;5035657;28;20220;-56
2023/03/10 09:44:41;;;;;;;0.60;0.60;;;;;;;17.16;71.93;98517.78;5007013;28;20727;-57
2023/03/10 09:47:25;;;;;;;0.60;0.60;;;;;;;17.28;70.99;98509.16;5033545;28;20256;-56
2023/03/10 09:50:02;;;;;;;0.40;0.40;;;;;;;17.35;71.22;98507.78;5038825;28;20291;-57
2023/03/10 09:52:39;;;;;;;0.53;0.53;;;;;;;17.49;71.34;98507.63;5027629;28;20190;-57
2023/03/10 09:55:18;;;;;;;4.80;0.77;;;;;;;17.66;69.82;98509.84;5022065;28;20588;-56
2023/03/10 09:57:47;;;;;;;0.50;0.50;;;;;;;17.57;68.17;98494.97;5029869;28;20605;-56
2023/03/10 10:00:22;;;;;;;0.97;0.97;;;;;;;17.72;68.06;98498.19;5021137;28;20205;-57
2023/03/10 10:02:57;;;;;;;0.80;0.80;;;;;;;17.80;68.23;98482.91;5039277;28;20213;-57
2023/03/10 10:05:30;;;;;;;0.97;0.97;;;;;;;17.81;69.63;98477.59;5032867;28;20193;-56
2023/03/10 10:07:59;;;;;;;2.23;2.03;;;;;;;17.93;70.35;98475.88;5035649;28;20207;-57
2023/03/10 10:10:28;;;;;;;0.80;0.80;;;;;;;17.90;68.87;98470.91;5027923;28;20209;-57
2023/03/10 10:13:00;;;;;;;0.70;0.70;;;;;;;17.95;68.18;98455.00;5028199;28;20202;-56
2023/03/10 10:15:30;;;;;;;0.50;0.50;;;;;;;18.18;68.59;98470.50;5023066;28;20276;-57
2023/03/10 10:18:08;;;;;;;0.47;0.47;;;;;;;18.32;69.07;98467.66;5037143;28;20193;-57
2023/03/10 10:20:39;;;;;;;0.50;0.50;;;;;;;18.46;67.66;98458.81;5032361;28;20639;-57
2023/03/10 10:23:15;;;;;;;0.40;0.40;;;;;;;18.55;67.89;98457.31;5020514;28;20263;-60
2023/03/10 10:25:42;;;;;;;0.60;0.60;;;;;;;18.65;67.68;98450.47;5020613;28;20288;-56
2023/03/10 10:28:19;;;;;;;0.50;0.50;;;;;;;18.68;66.82;98447.63;5014760;28;20224;-57
2023/03/10 10:30:46;;;;;;;0.60;0.60;;;;;;;18.79;65.94;98440.66;5025515;28;20565;-57
2023/03/10 10:33:15;;;;;;;0.50;0.50;;;;;;;18.87;66.15;98432.25;5032647;28;20197;-57
2023/03/10 10:35:44;;;;;;;0.50;0.50;;;;;;;19.00;65.23;98437.31;5030649;28;20207;-57
2023/03/10 10:38:23;;;;;;;0.50;0.50;;;;;;;18.97;64.11;98429.75;5027287;28;20710;-57
2023/03/10 10:40:56;;;;;;;0.70;0.70;;;;;;;18.92;64.28;98418.91;5036448;28;20548;-57
2023/03/10 10:43:23;;;;;;;0.40;0.40;;;;;;;18.93;64.22;98407.59;5018773;28;20217;-57
2023/03/10 10:45:54;;;;;;;0.77;0.77;;;;;;;18.99;65.64;98394.09;5031262;28;20213;-57
2023/03/10 10:48:41;;;;;;;0.50;0.50;;;;;;;19.09;65.57;98395.00;5031214;28;20214;-57
2023/03/10 10:51:20;;;;;;;0.50;0.50;;;;;;;19.10;63.77;98386.25;5036382;28;20205;-57
2023/03/10 10:53:48;;;;;;;0.60;0.60;;;;;;;19.01;63.59;98367.06;5027081;28;20202;-56
2023/03/10 10:56:16;;;;;;;0.33;0.33;;;;;;;18.91;63.94;98355.75;5022892;28;20580;-56
2023/03/10 10:58:44;;;;;;;0.40;0.40;;;;;;;19.01;64.84;98353.22;5016427;28;20201;-57
2023/03/10 11:01:13;;;;;;;0.60;0.60;;;;;;;18.95;64.44;98354.56;5031296;28;20272;-57
2023/03/10 11:03:43;;;;;;;0.50;0.50;;;;;;;19.01;64.12;98345.44;5019630;28;20213;-57
2023/03/10 11:06:15;;;;;;;0.50;0.50;;;;;;;19.08;64.48;98331.84;5027610;28;20209;-57
2023/03/10 11:08:49;;;;;;;0.50;0.50;;;;;;;19.07;64.53;98327.59;5031025;28;20599;-57
2023/03/10 11:11:23;;;;;;;0.40;0.40;;;;;;;19.10;64.95;98313.50;5041006;28;20198;-57
2023/03/10 11:14:01;;;;;;;0.50;0.50;;;;;;;19.10;64.93;98310.91;5027260;28;20264;-56
2023/03/10 11:16:38;;;;;;;0.37;0.37;;;;;;;19.14;66.14;98284.56;5028449;28;20207;-58
2023/03/10 11:19:15;;;;;;;1.20;1.20;;;;;;;19.20;66.89;98278.03;5030744;28;20201;-57
2023/03/10 11:21:45;;;;;;;0.50;0.50;;;;;;;19.30;66.03;98282.34;5023396;28;20320;-56
2023/03/10 11:24:20;;;;;;;0.50;0.50;;;;;;;19.23;67.12;98265.63;5023293;28;20655;-56
2023/03/10 11:26:52;;;;;;;0.50;0.50;;;;;;;19.23;67.04;98275.19;5035859;28;20251;-56
2023/03/10 11:29:31;;;;;;;0.60;0.60;;;;;;;19.12;67.20;98251.88;5031900;28;20283;-58
2023/03/10 11:32:08;;;;;;;0.30;0.30;;;;;;;19.20;67.25;98267.66;5031144;28;20201;-57
2023/03/10 11:34:42;;;;;;;0.50;0.50;;;;;;;19.24;67.78;98253.47;5013548;28;20206;-57
2023/03/10 11:37:20;;;;;;;0.50;0.50;;;;;;;19.25;67.51;98253.34;5031644;28;20208;-57
2023/03/10 11:39:54;;;;;;;0.50;0.50;;;;;;;19.18;66.57;98248.78;5025940;28;20783;-56